National Weather Service United States Department of Commerce

SFO Marine Stratus Forecast System

Last refreshed: 0138Z Refresh page

Approach Clear

CWSU Oakland Forecast

ANOTHER DAY OF VFR CONDITIONS

VAPS

Updated at 13:02Z

Confidence: HIGH


VFR WX CONTS ACROSS THE AREA. EXP AFTERNOON WEST WINDS AND NO SGNFT ISSUES FOR SFO. Fri Mar 6 13:02:20 2015


Details

Model Forecast

Approach clear at N/A GMT

Component models:

COBELN/A
LocalN/A
RegionalN/A
SatelliteN/A

Winter Mode Model quality indicator

Reliability reason:
Model quality: n/a

Forecasts return May 15


Probability of clearing by:

17Z 18Z 19Z 20Z
-- -- -- --

Details

WFO Monterey Discussion

Terminal: VFR. Light seabreeze early Friday evening and again late Saturday afternoon. Otherwise light and variable winds. High confidence.

Approach: Similar to the terminal.

Updated Fri Mar 6 23:50Z


Details

Satellite image
Click to loop

Observations

Time Temp Dew Wind Clouds Vis

SFO

Sky cover icon013064432713200 FEW  10

SMB

Sky cover icon0135N/AN/A2707CLR  10

Terminal Forecast

KSFO 062321Z 0700/0806 28013KT P6SM SKC
      FM070400 28006KT P6SM SKC
      FM070800 VRB03KT P6SM SKC
      FM071400 08004KT P6SM SKC
      FM072200 29012KT P6SM SKC
      FM080400 28006KT P6SM FEW008
					

More